createdAt,value
2017-10-24T00:01:11.383Z,88.10
2017-10-24T00:03:38.378Z,87.70
2017-10-24T00:06:04.700Z,88.70
2017-10-24T00:08:31.004Z,89.00
2017-10-24T00:10:57.358Z,88.10
2017-10-24T00:13:24.404Z,88.30
2017-10-24T00:15:52.166Z,89.70
2017-10-24T00:18:19.144Z,89.20
2017-10-24T00:20:45.462Z,88.40
2017-10-24T00:23:12.499Z,89.10
2017-10-24T00:25:38.859Z,89.00
2017-10-24T00:28:05.915Z,89.20
2017-10-24T00:30:33.324Z,88.70
2017-10-24T00:32:59.691Z,88.60
2017-10-24T00:35:26.527Z,89.10
2017-10-24T00:37:53.391Z,88.90
2017-10-24T00:40:19.695Z,89.20
2017-10-24T00:42:46.023Z,88.10
2017-10-24T00:45:12.379Z,88.70
2017-10-24T00:47:39.163Z,88.90
2017-10-24T00:50:06.228Z,88.70
2017-10-24T00:52:32.899Z,88.80
2017-10-24T00:54:59.215Z,88.80
2017-10-24T00:57:25.535Z,88.80
2017-10-24T00:59:53.323Z,89.60
2017-10-24T01:02:19.655Z,89.70
2017-10-24T01:04:46.439Z,89.50
2017-10-24T01:07:12.739Z,89.00
2017-10-24T01:09:39.037Z,89.10
2017-10-24T01:12:05.395Z,88.90
2017-10-24T01:14:32.809Z,89.80
2017-10-24T01:17:00.459Z,90.60
2017-10-24T01:19:27.191Z,89.40
2017-10-24T01:21:53.583Z,88.90
2017-10-24T01:24:20.319Z,89.50
2017-10-24T01:26:46.679Z,89.70
2017-10-24T01:29:14.083Z,89.50
2017-10-24T01:31:40.491Z,89.50
2017-10-24T01:34:07.939Z,89.40
2017-10-24T01:36:35.026Z,89.20
2017-10-24T01:39:01.371Z,89.20
2017-10-24T01:41:28.175Z,90.20
2017-10-24T01:43:55.262Z,90.10
2017-10-24T01:46:21.943Z,90.20
2017-10-24T01:48:48.619Z,89.90
2017-10-24T01:51:16.137Z,90.80
2017-10-24T01:53:42.495Z,90.80
2017-10-24T01:56:08.799Z,90.90
2017-10-24T01:58:35.180Z,90.30
2017-10-24T02:01:01.533Z,91.90
2017-10-24T02:03:28.483Z,90.40
2017-10-24T02:05:55.547Z,90.30
2017-10-24T02:08:21.907Z,90.20
2017-10-24T02:10:48.739Z,90.90
2017-10-24T02:13:15.078Z,90.30
2017-10-24T02:15:41.429Z,90.60
2017-10-24T02:18:08.215Z,90.00
2017-10-24T02:20:35.124Z,90.20
2017-10-24T02:23:01.466Z,90.50
2017-10-24T02:25:28.379Z,91.10
2017-10-24T02:27:55.442Z,90.60
2017-10-24T02:30:21.771Z,90.60
2017-10-24T02:32:48.863Z,90.60
2017-10-24T02:35:15.531Z,90.60
2017-10-24T02:37:41.831Z,90.60
2017-10-24T02:40:08.147Z,89.70
2017-10-24T02:42:34.518Z,90.00
2017-10-24T02:45:01.251Z,89.90
2017-10-24T02:47:28.027Z,89.30
2017-10-24T02:49:54.348Z,89.40
2017-10-24T02:52:21.155Z,89.60
2017-10-24T02:54:47.501Z,89.40
2017-10-24T02:57:13.850Z,88.80
2017-10-24T02:59:40.219Z,89.00
2017-10-24T03:02:06.524Z,90.20
2017-10-24T03:04:33.467Z,90.10
2017-10-24T03:06:59.779Z,90.40
2017-10-24T03:09:27.209Z,91.00
2017-10-24T03:11:54.143Z,91.00
2017-10-24T03:14:20.459Z,90.60
2017-10-24T03:16:46.786Z,90.50
2017-10-24T03:19:13.571Z,90.10
2017-10-24T03:21:39.903Z,90.30
2017-10-24T03:24:06.716Z,90.70
2017-10-24T03:26:33.057Z,90.30
2017-10-24T03:28:59.387Z,91.20
2017-10-24T03:31:26.067Z,90.90
2017-10-24T03:33:53.097Z,90.30
2017-10-24T03:36:19.412Z,89.20
2017-10-24T03:38:45.700Z,90.00
2017-10-24T03:41:12.051Z,90.30
2017-10-24T03:43:38.341Z,89.50
2017-10-24T03:46:05.196Z,89.90
2017-10-24T03:48:31.826Z,90.10
2017-10-24T03:50:58.164Z,89.80
2017-10-24T03:53:24.458Z,89.90
2017-10-24T03:55:51.635Z,90.50
2017-10-24T03:58:17.931Z,90.60
2017-10-24T04:00:44.354Z,90.20
2017-10-24T04:03:10.879Z,90.10
2017-10-24T04:05:37.866Z,89.80
2017-10-24T04:08:04.509Z,90.00
2017-10-24T04:10:30.814Z,90.10
2017-10-24T04:12:57.443Z,90.30
2017-10-24T04:15:23.770Z,90.30
2017-10-24T04:17:50.540Z,90.50
2017-10-24T04:20:17.275Z,91.10
2017-10-24T04:22:44.035Z,91.20
2017-10-24T04:25:10.364Z,91.20
2017-10-24T04:27:36.684Z,90.80
2017-10-24T04:30:03.164Z,90.90
2017-10-24T04:32:31.049Z,93.50
2017-10-24T04:34:57.715Z,93.60
2017-10-24T04:37:24.797Z,94.20
2017-10-24T04:39:51.119Z,94.00
2017-10-24T04:42:17.707Z,91.60
2017-10-24T04:44:44.439Z,92.50
2017-10-24T04:47:11.303Z,92.40
2017-10-24T04:49:38.268Z,92.00
2017-10-24T04:52:05.766Z,90.10
2017-10-24T04:54:32.464Z,90.20
2017-10-24T04:56:59.276Z,91.40
2017-10-24T04:59:25.969Z,90.00
2017-10-24T05:01:52.734Z,91.40
2017-10-24T05:04:20.270Z,89.10
2017-10-24T05:06:46.572Z,89.10
2017-10-24T05:09:12.879Z,90.80
2017-10-24T05:11:39.225Z,90.60
2017-10-24T05:14:05.527Z,90.20
2017-10-24T05:16:31.913Z,89.60
2017-10-24T05:18:58.745Z,89.10
2017-10-24T05:21:25.071Z,88.80
2017-10-24T05:23:52.115Z,90.20
2017-10-24T05:26:19.754Z,90.20
2017-10-24T05:28:46.905Z,90.10
2017-10-24T05:31:13.776Z,91.40
2017-10-24T05:33:40.831Z,90.60
2017-10-24T05:36:08.347Z,89.90
2017-10-24T05:38:34.672Z,89.90
2017-10-24T05:41:01.367Z,91.80
2017-10-24T05:43:27.658Z,91.10
2017-10-24T05:45:53.972Z,90.20
2017-10-24T05:48:20.322Z,90.40
2017-10-24T05:50:46.619Z,90.90
2017-10-24T05:53:13.758Z,90.90
2017-10-24T05:55:40.103Z,90.90
2017-10-24T05:58:07.618Z,92.50
2017-10-24T06:00:33.937Z,92.50
2017-10-24T06:03:00.695Z,91.20
2017-10-24T06:05:27.511Z,90.40
2017-10-24T06:07:55.113Z,91.20
2017-10-24T06:10:21.406Z,91.20
2017-10-24T06:12:48.455Z,91.20
2017-10-24T06:15:16.153Z,90.20
2017-10-24T06:17:43.307Z,90.20
2017-10-24T06:20:09.639Z,90.50
2017-10-24T06:22:35.929Z,90.50
2017-10-24T06:25:02.391Z,90.20
2017-10-24T06:27:29.898Z,90.10
2017-10-24T06:29:56.576Z,90.10
2017-10-24T06:32:22.879Z,90.60
2017-10-24T06:34:49.643Z,90.30
2017-10-24T06:37:15.975Z,90.40
2017-10-24T06:39:42.897Z,90.10
2017-10-24T06:42:09.228Z,89.60
2017-10-24T06:44:35.982Z,90.60
2017-10-24T06:47:02.299Z,90.90
2017-10-24T06:49:28.607Z,90.70
2017-10-24T06:51:55.063Z,90.30
2017-10-24T06:54:22.559Z,90.40
2017-10-24T06:56:48.867Z,90.40
2017-10-24T06:59:16.426Z,90.90
2017-10-24T07:01:43.459Z,91.00
2017-10-24T07:04:09.804Z,91.00
2017-10-24T07:06:37.219Z,91.00
2017-10-24T07:09:03.627Z,91.00
2017-10-24T07:11:29.967Z,90.90
2017-10-24T07:13:56.740Z,90.40
2017-10-24T07:16:23.043Z,90.30
2017-10-24T07:18:49.798Z,89.50
2017-10-24T07:21:16.115Z,88.70
2017-10-24T07:23:43.183Z,88.30
2017-10-24T07:26:09.868Z,88.30
2017-10-24T07:28:36.541Z,87.40
2017-10-24T07:31:03.406Z,87.90
2017-10-24T07:33:30.842Z,87.60
2017-10-24T07:35:57.625Z,87.50
2017-10-24T07:38:24.279Z,88.10
2017-10-24T07:40:51.015Z,87.60
2017-10-24T07:43:17.979Z,87.40
2017-10-24T07:45:44.812Z,87.80
2017-10-24T07:48:11.582Z,88.50
2017-10-24T07:50:38.365Z,88.70
2017-10-24T07:53:05.105Z,88.10
2017-10-24T07:55:31.819Z,88.10
2017-10-24T07:57:58.892Z,88.30
2017-10-24T08:00:25.726Z,88.30
2017-10-24T08:02:52.447Z,87.70
2017-10-24T08:05:19.180Z,86.20
2017-10-24T08:07:46.791Z,87.40
2017-10-24T08:10:13.531Z,87.40
2017-10-24T08:12:40.351Z,87.90
2017-10-24T08:15:06.987Z,87.80
2017-10-24T08:17:33.753Z,87.80
2017-10-24T08:20:00.600Z,87.30
2017-10-24T08:22:27.292Z,87.30
2017-10-24T08:24:54.237Z,87.40
2017-10-24T08:27:21.078Z,86.70
2017-10-24T08:29:47.838Z,86.90
2017-10-24T08:32:14.882Z,87.00
2017-10-24T08:34:42.475Z,86.00
2017-10-24T08:37:10.078Z,85.40
2017-10-24T08:39:36.833Z,85.40
2017-10-24T08:42:03.586Z,84.40
2017-10-24T08:44:29.900Z,84.30
2017-10-24T08:46:56.207Z,82.40
2017-10-24T08:49:23.291Z,82.90
2017-10-24T08:51:49.599Z,82.70
2017-10-24T08:54:17.018Z,82.20
2017-10-24T08:56:43.398Z,82.20
2017-10-24T08:59:10.927Z,82.20
2017-10-24T09:01:37.275Z,82.00
2017-10-24T09:04:03.641Z,84.10
2017-10-24T09:06:30.551Z,82.70
2017-10-24T09:09:20.894Z,81.80
2017-10-24T09:11:56.593Z,81.70
2017-10-24T09:14:23.957Z,81.90
2017-10-24T09:16:53.276Z,83.10
2017-10-24T09:19:42.879Z,81.70
2017-10-24T09:22:20.023Z,81.60
2017-10-24T09:24:48.035Z,81.20
2017-10-24T09:27:14.881Z,80.90
2017-10-24T09:29:41.198Z,81.70
2017-10-24T09:32:08.237Z,78.80
2017-10-24T09:34:35.927Z,79.30
2017-10-24T09:37:02.273Z,79.20
2017-10-24T09:39:28.630Z,80.80
2017-10-24T09:41:55.539Z,80.10
2017-10-24T09:44:21.890Z,81.30
2017-10-24T09:46:48.220Z,81.20
2017-10-24T09:49:14.593Z,80.00
2017-10-24T09:51:43.182Z,80.10
2017-10-24T09:54:09.517Z,78.90
2017-10-24T09:56:45.699Z,78.90
2017-10-24T09:59:14.393Z,79.10
2017-10-24T10:01:47.641Z,78.80
2017-10-24T10:04:15.279Z,79.50
2017-10-24T10:07:01.470Z,78.30
2017-10-24T10:09:27.833Z,78.10
2017-10-24T10:11:54.226Z,79.10
2017-10-24T10:14:22.374Z,75.90
2017-10-24T10:16:48.783Z,76.50
2017-10-24T10:19:15.442Z,77.20
2017-10-24T10:21:42.535Z,75.60
2017-10-24T10:24:17.738Z,77.90
2017-10-24T10:26:44.118Z,77.40
2017-10-24T10:29:11.634Z,76.30
2017-10-24T10:31:37.981Z,76.30
2017-10-24T10:34:04.808Z,74.90
2017-10-24T10:36:31.126Z,75.10
2017-10-24T10:38:57.480Z,74.50
2017-10-24T10:41:24.175Z,76.20
2017-10-24T10:43:50.503Z,75.90
2017-10-24T10:46:16.846Z,76.50
2017-10-24T10:48:43.192Z,72.60
2017-10-24T10:51:10.593Z,76.40
2017-10-24T10:53:36.891Z,76.40
2017-10-24T10:56:04.011Z,75.70
2017-10-24T10:58:31.101Z,75.80
2017-10-24T11:00:58.174Z,74.60
2017-10-24T11:03:24.958Z,74.40
2017-10-24T11:05:51.920Z,77.10
2017-10-24T11:08:18.236Z,76.60
2017-10-24T11:10:44.559Z,76.00
2017-10-24T11:13:10.890Z,76.50
2017-10-24T11:15:37.210Z,74.90
2017-10-24T11:18:04.166Z,74.90
2017-10-24T11:20:30.460Z,76.10
2017-10-24T11:22:57.868Z,73.30
2017-10-24T11:25:24.172Z,73.80
2017-10-24T11:27:51.660Z,73.80
2017-10-24T11:30:17.958Z,73.70
2017-10-24T11:32:44.614Z,74.10
2017-10-24T11:35:11.419Z,73.20
2017-10-24T11:37:37.717Z,75.20
2017-10-24T11:40:04.055Z,74.10
2017-10-24T11:42:30.395Z,73.20
2017-10-24T11:44:56.719Z,70.30
2017-10-24T11:47:24.258Z,72.90
2017-10-24T11:49:50.587Z,72.80
2017-10-24T11:52:17.271Z,71.30
2017-10-24T11:54:44.012Z,72.60
2017-10-24T11:57:10.387Z,73.00
2017-10-24T11:59:37.370Z,70.60
2017-10-24T12:02:04.303Z,71.90
2017-10-24T12:04:30.631Z,73.10
2017-10-24T12:06:57.543Z,72.80
2017-10-24T12:09:23.872Z,72.30
2017-10-24T12:11:50.980Z,72.30
2017-10-24T12:14:17.920Z,72.30
2017-10-24T12:16:44.251Z,72.50
2017-10-24T12:19:11.163Z,71.10
2017-10-24T12:21:37.955Z,71.00
2017-10-24T12:24:04.907Z,70.00
2017-10-24T12:26:31.212Z,71.20
2017-10-24T12:28:57.540Z,70.60
2017-10-24T12:31:23.979Z,70.20
2017-10-24T12:33:50.298Z,70.70
2017-10-24T12:36:18.182Z,69.90
2017-10-24T12:38:44.524Z,69.70
2017-10-24T12:41:10.876Z,70.20
2017-10-24T12:43:37.252Z,70.40
2017-10-24T12:46:14.359Z,70.60
2017-10-24T12:48:43.535Z,67.70
2017-10-24T12:51:09.877Z,67.50
2017-10-24T12:53:36.195Z,70.00
2017-10-24T12:56:02.567Z,69.60
2017-10-24T12:58:45.931Z,67.10
2017-10-24T13:01:12.575Z,67.10
2017-10-24T13:03:38.916Z,67.60
2017-10-24T13:06:05.792Z,68.10
2017-10-24T13:08:32.082Z,67.10
2017-10-24T13:10:58.431Z,67.50
2017-10-24T13:13:25.236Z,68.10
2017-10-24T13:15:52.331Z,66.80
2017-10-24T13:18:19.020Z,66.80
2017-10-24T13:20:45.323Z,67.80
2017-10-24T13:23:12.188Z,67.40
2017-10-24T13:25:38.491Z,66.20
2017-10-24T13:28:04.785Z,67.30
2017-10-24T13:30:31.869Z,68.50
2017-10-24T13:32:58.646Z,68.20
2017-10-24T13:35:25.436Z,68.70
2017-10-24T13:37:52.484Z,68.70
2017-10-24T13:40:19.518Z,69.00
2017-10-24T13:42:46.190Z,68.70
2017-10-24T13:45:13.641Z,68.60
2017-10-24T13:47:39.962Z,68.60
2017-10-24T13:50:06.268Z,67.90
2017-10-24T13:52:32.883Z,69.20
2017-10-24T13:54:59.180Z,69.60
2017-10-24T13:57:26.179Z,70.00
2017-10-24T13:59:52.846Z,70.10
2017-10-24T14:02:19.190Z,69.60
2017-10-24T14:04:51.443Z,69.10
2017-10-24T14:07:24.251Z,69.00
2017-10-24T14:09:57.835Z,69.10
2017-10-24T14:12:24.723Z,68.70
2017-10-24T14:14:51.031Z,68.80
2017-10-24T14:17:17.882Z,69.10
2017-10-24T14:19:44.208Z,70.00
2017-10-24T14:22:10.514Z,69.70
2017-10-24T14:24:37.432Z,70.70
2017-10-24T14:27:05.051Z,69.80
2017-10-24T14:29:31.353Z,69.80
2017-10-24T14:31:58.680Z,71.50
2017-10-24T14:34:25.586Z,71.60
2017-10-24T14:36:52.338Z,71.60
2017-10-24T14:39:18.643Z,70.90
2017-10-24T14:41:45.451Z,71.40
2017-10-24T14:44:11.765Z,71.80
2017-10-24T14:46:38.075Z,71.40
2017-10-24T14:49:04.518Z,72.20
2017-10-24T14:51:30.830Z,72.60
2017-10-24T14:53:58.581Z,73.10
2017-10-24T14:56:25.242Z,73.10
2017-10-24T14:58:52.945Z,73.30
2017-10-24T15:01:19.266Z,73.30
2017-10-24T15:03:45.569Z,73.30
2017-10-24T15:06:12.350Z,73.80
2017-10-24T15:08:38.658Z,73.70
2017-10-24T15:11:05.697Z,73.70
2017-10-24T15:13:32.040Z,73.70
2017-10-24T15:15:58.374Z,75.00
2017-10-24T15:18:25.249Z,75.90
2017-10-24T15:20:51.572Z,76.00
2017-10-24T15:23:18.622Z,76.50
2017-10-24T15:25:46.917Z,76.80
2017-10-24T15:28:14.300Z,76.20
2017-10-24T15:30:40.616Z,76.20
2017-10-24T15:33:06.954Z,76.00
2017-10-24T15:35:33.708Z,75.90
2017-10-24T15:38:00.704Z,76.10
2017-10-24T15:40:27.004Z,76.30
2017-10-24T15:42:53.936Z,75.70
2017-10-24T15:45:20.239Z,76.10
2017-10-24T15:47:46.610Z,76.10
2017-10-24T15:50:13.597Z,76.40
2017-10-24T15:52:40.315Z,76.50
2017-10-24T15:55:07.115Z,76.30
2017-10-24T15:57:33.429Z,76.60
2017-10-24T16:00:00.410Z,76.90
2017-10-24T16:02:26.762Z,76.40
2017-10-24T16:04:54.267Z,77.60
2017-10-24T16:07:21.078Z,77.40
2017-10-24T16:09:48.138Z,76.80
2017-10-24T16:12:14.439Z,76.80
2017-10-24T16:14:40.782Z,77.70
2017-10-24T16:17:07.479Z,78.10
2017-10-24T16:19:34.289Z,78.30
2017-10-24T16:22:01.730Z,77.90
2017-10-24T16:24:28.103Z,77.90
2017-10-24T16:26:54.964Z,77.90
2017-10-24T16:29:21.309Z,78.50
2017-10-24T16:31:48.107Z,78.50
2017-10-24T16:34:14.827Z,79.00
2017-10-24T16:36:41.549Z,78.40
2017-10-24T16:39:07.870Z,80.00
2017-10-24T16:41:35.485Z,79.60
2017-10-24T16:44:01.829Z,79.60
2017-10-24T16:46:28.626Z,79.70
2017-10-24T16:48:55.651Z,80.30
2017-10-24T16:51:23.331Z,80.50
2017-10-24T16:53:49.667Z,80.60
2017-10-24T16:56:16.468Z,80.30
2017-10-24T16:58:43.138Z,80.50
2017-10-24T17:01:10.205Z,79.60
2017-10-24T17:03:37.869Z,79.00
2017-10-24T17:06:04.919Z,79.10
2017-10-24T17:08:32.358Z,79.50
2017-10-24T17:10:58.675Z,79.40
2017-10-24T17:13:24.998Z,80.20
2017-10-24T17:15:51.664Z,81.20
2017-10-24T17:18:18.599Z,81.00
2017-10-24T17:20:45.331Z,81.60
2017-10-24T17:23:11.671Z,80.80
2017-10-24T17:25:38.587Z,80.60
2017-10-24T17:28:04.907Z,80.90
2017-10-24T17:30:31.987Z,81.10
2017-10-24T17:32:58.783Z,82.00
2017-10-24T17:35:25.604Z,81.40
2017-10-24T17:37:51.952Z,82.00
2017-10-24T17:40:18.351Z,81.90
2017-10-24T17:42:44.684Z,81.40
2017-10-24T17:45:11.303Z,82.10
2017-10-24T17:47:38.996Z,81.60
2017-10-24T17:50:05.961Z,81.30
2017-10-24T17:52:32.859Z,81.20
2017-10-24T17:54:59.718Z,81.20
2017-10-24T17:57:26.765Z,80.90
2017-10-24T17:59:53.078Z,80.70
2017-10-24T18:02:19.672Z,80.80
2017-10-24T18:04:45.995Z,80.70
2017-10-24T18:07:13.659Z,80.80
2017-10-24T18:09:40.734Z,80.60
2017-10-24T18:12:07.072Z,80.60
2017-10-24T18:14:33.443Z,80.90
2017-10-24T18:16:59.755Z,80.50
2017-10-24T18:19:26.672Z,80.20
2017-10-24T18:21:54.188Z,80.20
2017-10-24T18:24:20.500Z,80.20
2017-10-24T18:26:46.815Z,80.00
2017-10-24T18:29:13.951Z,80.00
2017-10-24T18:31:41.376Z,79.90
2017-10-24T18:34:08.274Z,79.90
2017-10-24T18:36:35.659Z,79.90
2017-10-24T18:39:02.006Z,79.80
2017-10-24T18:41:28.716Z,79.90
2017-10-24T18:43:55.843Z,78.90
2017-10-24T18:46:22.748Z,78.90
2017-10-24T18:48:49.588Z,78.90
2017-10-24T18:51:16.581Z,78.70
2017-10-24T18:53:43.339Z,79.10
2017-10-24T18:56:10.005Z,79.30
2017-10-24T18:58:37.075Z,79.50
2017-10-24T19:01:03.449Z,79.50
2017-10-24T19:03:29.815Z,79.50
2017-10-24T19:05:56.487Z,79.40
2017-10-24T19:08:24.043Z,79.90
2017-10-24T19:10:51.136Z,79.80
2017-10-24T19:13:17.499Z,79.80
2017-10-24T19:15:43.855Z,80.20
2017-10-24T19:18:10.787Z,79.90
2017-10-24T19:20:37.611Z,79.50
2017-10-24T19:23:03.917Z,79.90
2017-10-24T19:25:30.266Z,80.20
2017-10-24T19:27:56.982Z,80.40
2017-10-24T19:30:23.372Z,80.10
2017-10-24T19:32:49.689Z,80.20
2017-10-24T19:35:16.548Z,80.00
2017-10-24T19:37:42.858Z,80.10
2017-10-24T19:40:09.572Z,80.00
2017-10-24T19:42:36.295Z,80.00
2017-10-24T19:45:02.616Z,80.30
2017-10-24T19:47:28.908Z,80.00
2017-10-24T19:49:55.985Z,80.30
2017-10-24T19:52:22.946Z,80.30
2017-10-24T19:54:49.243Z,79.90
2017-10-24T19:57:16.620Z,79.70
2017-10-24T19:59:43.003Z,79.60
2017-10-24T20:02:09.651Z,79.80
2017-10-24T20:04:35.980Z,79.90
2017-10-24T20:07:02.863Z,80.00
2017-10-24T20:09:30.395Z,79.60
2017-10-24T20:11:56.716Z,79.50
2017-10-24T20:14:23.016Z,78.40
2017-10-24T20:16:50.580Z,77.30
2017-10-24T20:19:18.265Z,78.20
2017-10-24T20:21:45.232Z,78.20
2017-10-24T20:24:11.551Z,78.30
2017-10-24T20:26:38.605Z,78.50
2017-10-24T20:29:05.499Z,78.20
2017-10-24T20:31:32.271Z,78.30
2017-10-24T20:33:59.788Z,77.80
2017-10-24T20:36:26.107Z,77.80
2017-10-24T20:38:52.773Z,78.00
2017-10-24T20:41:19.588Z,77.40
2017-10-24T20:43:45.879Z,77.20
2017-10-24T20:46:12.190Z,77.40
2017-10-24T20:48:38.549Z,77.10
2017-10-24T20:51:04.867Z,77.20
2017-10-24T20:53:31.288Z,76.80
2017-10-24T20:55:57.630Z,77.00
2017-10-24T20:58:24.551Z,76.80
2017-10-24T21:00:50.890Z,77.20
2017-10-24T21:03:17.219Z,77.10
2017-10-24T21:05:43.572Z,76.60
2017-10-24T21:08:10.407Z,76.30
2017-10-24T21:10:36.729Z,76.00
2017-10-24T21:13:03.783Z,76.10
2017-10-24T21:15:31.322Z,76.30
2017-10-24T21:17:58.236Z,76.30
2017-10-24T21:20:24.550Z,76.50
2017-10-24T21:22:51.292Z,76.10
2017-10-24T21:25:18.301Z,76.40
2017-10-24T21:27:44.970Z,76.50
2017-10-24T21:30:12.015Z,76.80
2017-10-24T21:32:39.047Z,76.60
2017-10-24T21:35:05.819Z,76.50
2017-10-24T21:37:33.319Z,77.00
2017-10-24T21:39:59.630Z,77.00
2017-10-24T21:42:25.919Z,76.80
2017-10-24T21:44:52.261Z,77.00
2017-10-24T21:47:18.913Z,76.90
2017-10-24T21:49:45.217Z,76.50
2017-10-24T21:52:11.901Z,76.00
2017-10-24T21:54:38.228Z,75.80
2017-10-24T21:57:05.755Z,75.80
2017-10-24T21:59:32.561Z,75.90
2017-10-24T22:02:00.109Z,74.60
2017-10-24T22:04:26.410Z,74.70
2017-10-24T22:06:52.718Z,74.80
2017-10-24T22:09:19.540Z,74.70
2017-10-24T22:11:46.910Z,75.30
2017-10-24T22:14:13.975Z,74.30
2017-10-24T22:16:40.287Z,74.30
2017-10-24T22:19:07.703Z,74.30
2017-10-24T22:21:34.455Z,74.20
2017-10-24T22:24:00.764Z,73.90
2017-10-24T22:26:27.531Z,73.50
2017-10-24T22:28:53.861Z,74.10
2017-10-24T22:31:20.708Z,73.90
2017-10-24T22:33:47.043Z,73.90
2017-10-24T22:36:13.803Z,73.70
2017-10-24T22:38:40.531Z,73.90
2017-10-24T22:41:06.827Z,73.40
2017-10-24T22:43:33.865Z,73.50
2017-10-24T22:46:00.956Z,73.50
2017-10-24T22:48:27.255Z,73.10
2017-10-24T22:50:53.683Z,73.10
2017-10-24T22:53:20.025Z,73.50
2017-10-24T22:55:46.326Z,73.40
2017-10-24T22:58:13.324Z,73.40
2017-10-24T23:00:40.991Z,73.00
2017-10-24T23:03:08.030Z,71.80
2017-10-24T23:05:34.346Z,71.60
2017-10-24T23:08:01.121Z,71.70
2017-10-24T23:10:27.449Z,72.00
2017-10-24T23:12:53.761Z,73.10
2017-10-24T23:15:20.945Z,72.30
2017-10-24T23:17:47.749Z,72.00
2017-10-24T23:20:14.494Z,71.20
2017-10-24T23:22:40.790Z,72.30
2017-10-24T23:25:07.836Z,72.10
2017-10-24T23:27:34.524Z,72.10
2017-10-24T23:30:01.475Z,71.90
2017-10-24T23:32:28.364Z,71.90
2017-10-24T23:34:55.279Z,72.90
2017-10-24T23:37:21.581Z,71.60
2017-10-24T23:39:47.891Z,71.90
2017-10-24T23:42:14.223Z,72.00
2017-10-24T23:44:40.559Z,71.70
2017-10-24T23:47:06.958Z,71.70
2017-10-24T23:49:33.294Z,71.90
2017-10-24T23:52:00.085Z,71.80
2017-10-24T23:54:26.387Z,71.20
2017-10-24T23:56:52.670Z,71.90
2017-10-24T23:59:19.866Z,72.30
